sensor_id;sensor_type;location;lat;lon;timestamp;pressure;altitude;pressure_sealevel;temperature;humidity
76940;BME280;65885;55.848;35.916;2023-03-12T00:01:10;96745.13;;;3.84;67.54
76940;BME280;65885;55.848;35.916;2023-03-12T00:03:38;96733.53;;;3.76;67.84
76940;BME280;65885;55.848;35.916;2023-03-12T00:06:06;96732.22;;;3.69;68.13
76940;BME280;65885;55.848;35.916;2023-03-12T00:08:35;96727.38;;;3.62;68.40
76940;BME280;65885;55.848;35.916;2023-03-12T00:11:06;96718.22;;;3.57;68.54
76940;BME280;65885;55.848;35.916;2023-03-12T00:13:33;96730.59;;;3.52;68.79
76940;BME280;65885;55.848;35.916;2023-03-12T00:16:08;96716.22;;;3.46;69.17
76940;BME280;65885;55.848;35.916;2023-03-12T00:18:37;96708.66;;;3.43;69.54
76940;BME280;65885;55.848;35.916;2023-03-12T00:21:05;96701.38;;;3.50;69.76
76940;BME280;65885;55.848;35.916;2023-03-12T00:23:33;96696.28;;;3.62;70.06
76940;BME280;65885;55.848;35.916;2023-03-12T00:26:00;96692.53;;;3.82;69.46
76940;BME280;65885;55.848;35.916;2023-03-12T00:28:27;96689.78;;;4.00;69.21
76940;BME280;65885;55.848;35.916;2023-03-12T00:30:55;96679.16;;;4.18;68.98
76940;BME280;65885;55.848;35.916;2023-03-12T00:33:24;96678.09;;;4.35;68.66
76940;BME280;65885;55.848;35.916;2023-03-12T00:35:52;96685.06;;;4.49;67.94
76940;BME280;65885;55.848;35.916;2023-03-12T00:38:20;96672.16;;;4.62;67.72
76940;BME280;65885;55.848;35.916;2023-03-12T00:40:48;96668.03;;;4.72;67.51
76940;BME280;65885;55.848;35.916;2023-03-12T00:43:15;96666.06;;;4.76;67.20
76940;BME280;65885;55.848;35.916;2023-03-12T00:45:43;96657.75;;;4.70;66.92
76940;BME280;65885;55.848;35.916;2023-03-12T00:48:11;96653.06;;;4.63;66.82
76940;BME280;65885;55.848;35.916;2023-03-12T00:50:39;96651.13;;;4.52;66.91
76940;BME280;65885;55.848;35.916;2023-03-12T00:53:07;96627.63;;;4.41;67.35
76940;BME280;65885;55.848;35.916;2023-03-12T00:55:34;96635.22;;;4.30;67.72
76940;BME280;65885;55.848;35.916;2023-03-12T00:58:02;96641.81;;;4.21;68.08
76940;BME280;65885;55.848;35.916;2023-03-12T01:00:29;96633.66;;;4.13;68.29
76940;BME280;65885;55.848;35.916;2023-03-12T01:02:57;96628.09;;;4.05;68.38
76940;BME280;65885;55.848;35.916;2023-03-12T01:05:24;96626.81;;;3.98;68.90
76940;BME280;65885;55.848;35.916;2023-03-12T01:07:54;96617.56;;;3.94;69.13
76940;BME280;65885;55.848;35.916;2023-03-12T01:10:22;96616.91;;;3.90;69.31
76940;BME280;65885;55.848;35.916;2023-03-12T01:12:50;96615.34;;;3.87;69.81
76940;BME280;65885;55.848;35.916;2023-03-12T01:15:17;96615.44;;;3.86;70.19
76940;BME280;65885;55.848;35.916;2023-03-12T01:17:45;96604.16;;;3.87;70.08
76940;BME280;65885;55.848;35.916;2023-03-12T01:20:13;96603.47;;;3.98;70.13
76940;BME280;65885;55.848;35.916;2023-03-12T01:22:40;96611.06;;;4.15;70.40
76940;BME280;65885;55.848;35.916;2023-03-12T01:25:09;96601.31;;;4.33;70.15
76940;BME280;65885;55.848;35.916;2023-03-12T01:27:39;96591.44;;;4.52;70.06
76940;BME280;65885;55.848;35.916;2023-03-12T01:30:08;96587.69;;;4.70;69.42
76940;BME280;65885;55.848;35.916;2023-03-12T01:32:36;96584.00;;;4.87;69.29
76940;BME280;65885;55.848;35.916;2023-03-12T01:35:04;96577.78;;;5.03;68.50
76940;BME280;65885;55.848;35.916;2023-03-12T01:37:32;96574.47;;;5.13;68.21
76940;BME280;65885;55.848;35.916;2023-03-12T01:39:59;96578.66;;;5.16;67.97
76940;BME280;65885;55.848;35.916;2023-03-12T01:42:29;96565.13;;;5.11;67.82
76940;BME280;65885;55.848;35.916;2023-03-12T01:44:58;96562.22;;;5.03;67.58
76940;BME280;65885;55.848;35.916;2023-03-12T01:47:27;96558.66;;;4.91;68.06
76940;BME280;65885;55.848;35.916;2023-03-12T01:49:57;96562.78;;;4.81;68.24
76940;BME280;65885;55.848;35.916;2023-03-12T01:52:28;96549.69;;;4.69;68.46
76940;BME280;65885;55.848;35.916;2023-03-12T01:55:00;96547.66;;;4.60;68.65
76940;BME280;65885;55.848;35.916;2023-03-12T01:57:35;96541.28;;;4.52;69.00
76940;BME280;65885;55.848;35.916;2023-03-12T02:00:07;96540.84;;;4.45;69.33
76940;BME280;65885;55.848;35.916;2023-03-12T02:02:37;96549.88;;;4.39;69.87
76940;BME280;65885;55.848;35.916;2023-03-12T02:05:09;96536.34;;;4.34;69.87
76940;BME280;65885;55.848;35.916;2023-03-12T02:07:38;96533.97;;;4.31;70.17
76940;BME280;65885;55.848;35.916;2023-03-12T02:10:05;96524.50;;;4.30;70.53
76940;BME280;65885;55.848;35.916;2023-03-12T02:12:34;96524.88;;;4.38;70.76
76940;BME280;65885;55.848;35.916;2023-03-12T02:15:02;96510.06;;;4.53;70.58
76940;BME280;65885;55.848;35.916;2023-03-12T02:17:30;96513.13;;;4.72;70.66
76940;BME280;65885;55.848;35.916;2023-03-12T02:20:03;96503.22;;;4.92;70.19
76940;BME280;65885;55.848;35.916;2023-03-12T02:22:34;96496.56;;;5.13;69.93
76940;BME280;65885;55.848;35.916;2023-03-12T02:25:12;96489.31;;;5.31;69.69
76940;BME280;65885;55.848;35.916;2023-03-12T02:27:40;96479.53;;;5.47;68.92
76940;BME280;65885;55.848;35.916;2023-03-12T02:30:10;96479.59;;;5.58;68.65
76940;BME280;65885;55.848;35.916;2023-03-12T02:32:41;96473.38;;;5.61;68.62
76940;BME280;65885;55.848;35.916;2023-03-12T02:35:10;96458.78;;;5.58;68.35
76940;BME280;65885;55.848;35.916;2023-03-12T02:37:46;96460.16;;;5.51;68.43
76940;BME280;65885;55.848;35.916;2023-03-12T02:40:21;96473.69;;;5.44;68.47
76940;BME280;65885;55.848;35.916;2023-03-12T02:42:51;96470.91;;;5.34;68.38
76940;BME280;65885;55.848;35.916;2023-03-12T02:45:19;96460.31;;;5.24;68.70
76940;BME280;65885;55.848;35.916;2023-03-12T02:47:46;96451.28;;;5.17;68.83
76940;BME280;65885;55.848;35.916;2023-03-12T02:50:14;96448.38;;;5.09;69.33
76940;BME280;65885;55.848;35.916;2023-03-12T02:52:42;96437.66;;;5.01;69.50
76940;BME280;65885;55.848;35.916;2023-03-12T02:55:09;96434.66;;;4.94;69.75
76940;BME280;65885;55.848;35.916;2023-03-12T02:57:40;96428.94;;;4.89;69.85
76940;BME280;65885;55.848;35.916;2023-03-12T03:00:10;96423.22;;;4.84;69.88
76940;BME280;65885;55.848;35.916;2023-03-12T03:02:39;96417.50;;;4.79;70.18
76940;BME280;65885;55.848;35.916;2023-03-12T03:05:08;96412.44;;;4.78;70.67
76940;BME280;65885;55.848;35.916;2023-03-12T03:07:35;96413.69;;;4.85;70.86
76940;BME280;65885;55.848;35.916;2023-03-12T03:10:04;96412.53;;;5.01;71.19
76940;BME280;65885;55.848;35.916;2023-03-12T03:12:32;96402.50;;;5.21;70.58
76940;BME280;65885;55.848;35.916;2023-03-12T03:15:01;96406.47;;;5.39;70.19
76940;BME280;65885;55.848;35.916;2023-03-12T03:17:29;96405.16;;;5.57;69.95
76940;BME280;65885;55.848;35.916;2023-03-12T03:19:56;96404.91;;;5.73;69.39
76940;BME280;65885;55.848;35.916;2023-03-12T03:22:24;96396.00;;;5.89;69.04
76940;BME280;65885;55.848;35.916;2023-03-12T03:24:52;96397.88;;;5.99;68.67
76940;BME280;65885;55.848;35.916;2023-03-12T03:27:19;96377.06;;;5.99;68.17
76940;BME280;65885;55.848;35.916;2023-03-12T03:29:47;96387.91;;;5.93;68.19
76940;BME280;65885;55.848;35.916;2023-03-12T03:32:16;96381.56;;;5.84;68.66
76940;BME280;65885;55.848;35.916;2023-03-12T03:34:43;96373.69;;;5.73;68.63
76940;BME280;65885;55.848;35.916;2023-03-12T03:37:16;96366.69;;;5.63;68.94
76940;BME280;65885;55.848;35.916;2023-03-12T03:39:44;96362.25;;;5.52;69.16
76940;BME280;65885;55.848;35.916;2023-03-12T03:42:11;96359.34;;;5.44;69.33
76940;BME280;65885;55.848;35.916;2023-03-12T03:44:39;96365.94;;;5.37;69.65
76940;BME280;65885;55.848;35.916;2023-03-12T03:47:06;96356.91;;;5.29;69.65
76940;BME280;65885;55.848;35.916;2023-03-12T03:49:35;96359.00;;;5.24;69.90
76940;BME280;65885;55.848;35.916;2023-03-12T03:52:02;96353.16;;;5.21;70.22
76940;BME280;65885;55.848;35.916;2023-03-12T03:54:31;96349.84;;;5.19;70.50
76940;BME280;65885;55.848;35.916;2023-03-12T03:56:58;96344.06;;;5.15;70.44
76940;BME280;65885;55.848;35.916;2023-03-12T03:59:26;96336.16;;;5.17;70.71
76940;BME280;65885;55.848;35.916;2023-03-12T04:01:54;96332.78;;;5.27;71.17
76940;BME280;65885;55.848;35.916;2023-03-12T04:04:22;96333.97;;;5.47;71.15
76940;BME280;65885;55.848;35.916;2023-03-12T04:06:50;96326.41;;;5.68;71.42
76940;BME280;65885;55.848;35.916;2023-03-12T04:09:18;96324.94;;;5.88;71.05
76940;BME280;65885;55.848;35.916;2023-03-12T04:11:47;96316.56;;;6.08;70.37
76940;BME280;65885;55.848;35.916;2023-03-12T04:14:15;96320.16;;;6.30;70.14
76940;BME280;65885;55.848;35.916;2023-03-12T04:16:42;96325.88;;;6.46;69.35
76940;BME280;65885;55.848;35.916;2023-03-12T04:19:09;96311.13;;;6.58;68.79
76940;BME280;65885;55.848;35.916;2023-03-12T04:21:36;96317.63;;;6.63;68.88
76940;BME280;65885;55.848;35.916;2023-03-12T04:24:06;96308.28;;;6.61;68.63
76940;BME280;65885;55.848;35.916;2023-03-12T04:26:34;96306.13;;;6.55;68.80
76940;BME280;65885;55.848;35.916;2023-03-12T04:29:01;96295.59;;;6.45;69.08
76940;BME280;65885;55.848;35.916;2023-03-12T04:31:29;96299.84;;;6.35;69.24
76940;BME280;65885;55.848;35.916;2023-03-12T04:33:56;96296.38;;;6.23;69.64
76940;BME280;65885;55.848;35.916;2023-03-12T04:36:23;96301.44;;;6.14;69.39
76940;BME280;65885;55.848;35.916;2023-03-12T04:38:51;96293.47;;;6.04;69.66
76940;BME280;65885;55.848;35.916;2023-03-12T04:41:19;96290.53;;;5.97;69.77
76940;BME280;65885;55.848;35.916;2023-03-12T04:43:47;96279.78;;;5.89;69.91
76940;BME280;65885;55.848;35.916;2023-03-12T04:46:14;96275.06;;;5.83;70.06
76940;BME280;65885;55.848;35.916;2023-03-12T04:48:41;96270.19;;;5.78;70.20
76940;BME280;65885;55.848;35.916;2023-03-12T04:51:09;96273.97;;;5.74;70.62
76940;BME280;65885;55.848;35.916;2023-03-12T04:53:37;96268.16;;;5.71;70.57
76940;BME280;65885;55.848;35.916;2023-03-12T04:56:05;96264.84;;;5.69;70.77
76940;BME280;65885;55.848;35.916;2023-03-12T04:58:34;96271.09;;;5.66;71.52
76940;BME280;65885;55.848;35.916;2023-03-12T05:01:03;96267.09;;;5.73;71.44
76940;BME280;65885;55.848;35.916;2023-03-12T05:03:30;96256.50;;;5.88;71.41
76940;BME280;65885;55.848;35.916;2023-03-12T05:05:58;96263.81;;;6.06;71.49
76940;BME280;65885;55.848;35.916;2023-03-12T05:08:25;96251.06;;;6.26;71.07
76940;BME280;65885;55.848;35.916;2023-03-12T05:10:52;96252.28;;;6.44;70.76
76940;BME280;65885;55.848;35.916;2023-03-12T05:13:21;96258.94;;;6.59;70.00
76940;BME280;65885;55.848;35.916;2023-03-12T05:15:50;96255.25;;;6.73;69.99
76940;BME280;65885;55.848;35.916;2023-03-12T05:18:19;96258.69;;;6.85;69.36
76940;BME280;65885;55.848;35.916;2023-03-12T05:20:47;96250.38;;;6.91;68.89
76940;BME280;65885;55.848;35.916;2023-03-12T05:23:23;96250.63;;;6.88;69.13
76940;BME280;65885;55.848;35.916;2023-03-12T05:25:51;96246.72;;;6.82;68.82
76940;BME280;65885;55.848;35.916;2023-03-12T05:28:18;96250.88;;;6.74;69.34
76940;BME280;65885;55.848;35.916;2023-03-12T05:30:46;96249.91;;;6.63;68.99
76940;BME280;65885;55.848;35.916;2023-03-12T05:33:15;96241.16;;;6.53;69.91
76940;BME280;65885;55.848;35.916;2023-03-12T05:35:42;96243.66;;;6.44;69.57
76940;BME280;65885;55.848;35.916;2023-03-12T05:38:10;96254.41;;;6.39;69.94
76940;BME280;65885;55.848;35.916;2023-03-12T05:40:37;96236.78;;;6.31;70.13
76940;BME280;65885;55.848;35.916;2023-03-12T05:43:05;96243.06;;;6.29;70.41
76940;BME280;65885;55.848;35.916;2023-03-12T05:45:32;96241.50;;;6.26;70.88
76940;BME280;65885;55.848;35.916;2023-03-12T05:47:59;96238.88;;;6.26;71.21
76940;BME280;65885;55.848;35.916;2023-03-12T05:50:28;96235.47;;;6.26;71.76
76940;BME280;65885;55.848;35.916;2023-03-12T05:52:58;96236.28;;;6.26;71.31
76940;BME280;65885;55.848;35.916;2023-03-12T05:55:26;96240.66;;;6.26;72.05
76940;BME280;65885;55.848;35.916;2023-03-12T05:57:53;96241.41;;;6.28;72.48
76940;BME280;65885;55.848;35.916;2023-03-12T06:00:21;96241.50;;;6.37;72.05
76940;BME280;65885;55.848;35.916;2023-03-12T06:02:52;96243.53;;;6.56;72.56
76940;BME280;65885;55.848;35.916;2023-03-12T06:05:19;96237.34;;;6.80;72.38
76940;BME280;65885;55.848;35.916;2023-03-12T06:07:48;96242.44;;;7.04;72.27
76940;BME280;65885;55.848;35.916;2023-03-12T06:10:16;96239.88;;;7.24;72.06
76940;BME280;65885;55.848;35.916;2023-03-12T06:12:44;96235.00;;;7.42;71.36
76940;BME280;65885;55.848;35.916;2023-03-12T06:15:11;96237.75;;;7.62;70.98
76940;BME280;65885;55.848;35.916;2023-03-12T06:17:39;96239.13;;;7.77;69.86
76940;BME280;65885;55.848;35.916;2023-03-12T06:20:08;96240.88;;;7.88;69.63
76940;BME280;65885;55.848;35.916;2023-03-12T06:22:36;96237.16;;;7.90;69.48
76940;BME280;65885;55.848;35.916;2023-03-12T06:25:06;96239.31;;;7.85;69.37
76940;BME280;65885;55.848;35.916;2023-03-12T06:27:34;96239.13;;;7.77;68.99
76940;BME280;65885;55.848;35.916;2023-03-12T06:30:01;96245.91;;;7.68;68.98
76940;BME280;65885;55.848;35.916;2023-03-12T06:32:29;96233.63;;;7.59;69.67
76940;BME280;65885;55.848;35.916;2023-03-12T06:34:57;96228.44;;;7.48;69.91
76940;BME280;65885;55.848;35.916;2023-03-12T06:37:25;96248.72;;;7.44;69.74
76940;BME280;65885;55.848;35.916;2023-03-12T06:39:53;96242.34;;;7.37;69.77
76940;BME280;65885;55.848;35.916;2023-03-12T06:42:22;96241.31;;;7.29;70.36
76940;BME280;65885;55.848;35.916;2023-03-12T06:44:51;96234.38;;;7.18;69.74
76940;BME280;65885;55.848;35.916;2023-03-12T06:47:18;96242.06;;;7.08;70.03
76940;BME280;65885;55.848;35.916;2023-03-12T06:49:45;96247.75;;;7.02;70.64
76940;BME280;65885;55.848;35.916;2023-03-12T06:52:13;96252.66;;;6.95;70.35
76940;BME280;65885;55.848;35.916;2023-03-12T06:54:41;96253.13;;;6.89;70.21
76940;BME280;65885;55.848;35.916;2023-03-12T06:57:08;96251.00;;;6.83;70.57
76940;BME280;65885;55.848;35.916;2023-03-12T06:59:37;96247.78;;;6.80;71.19
76940;BME280;65885;55.848;35.916;2023-03-12T07:02:05;96255.00;;;6.76;70.84
76940;BME280;65885;55.848;35.916;2023-03-12T07:04:33;96242.34;;;6.83;71.67
76940;BME280;65885;55.848;35.916;2023-03-12T07:07:01;96236.75;;;6.99;71.15
76940;BME280;65885;55.848;35.916;2023-03-12T07:09:29;96236.97;;;7.18;71.98
76940;BME280;65885;55.848;35.916;2023-03-12T07:11:57;96236.78;;;7.42;72.05
76940;BME280;65885;55.848;35.916;2023-03-12T07:14:24;96246.19;;;7.65;71.40
76940;BME280;65885;55.848;35.916;2023-03-12T07:16:53;96240.88;;;7.88;70.93
76940;BME280;65885;55.848;35.916;2023-03-12T07:19:21;96246.19;;;8.07;70.82
76940;BME280;65885;55.848;35.916;2023-03-12T07:21:48;96241.34;;;8.23;70.93
76940;BME280;65885;55.848;35.916;2023-03-12T07:24:16;96242.50;;;8.30;70.10
76940;BME280;65885;55.848;35.916;2023-03-12T07:26:43;96243.44;;;8.29;69.56
76940;BME280;65885;55.848;35.916;2023-03-12T07:29:11;96247.28;;;8.25;69.79
76940;BME280;65885;55.848;35.916;2023-03-12T07:31:38;96244.22;;;8.20;70.10
76940;BME280;65885;55.848;35.916;2023-03-12T07:34:07;96251.03;;;8.12;69.86
76940;BME280;65885;55.848;35.916;2023-03-12T07:36:35;96238.63;;;8.04;70.14
76940;BME280;65885;55.848;35.916;2023-03-12T07:39:02;96245.31;;;7.97;69.75
76940;BME280;65885;55.848;35.916;2023-03-12T07:41:30;96251.84;;;7.91;70.75
76940;BME280;65885;55.848;35.916;2023-03-12T07:43:58;96248.81;;;7.86;70.13
76940;BME280;65885;55.848;35.916;2023-03-12T07:46:26;96247.41;;;7.82;70.97
76940;BME280;65885;55.848;35.916;2023-03-12T07:48:53;96253.13;;;7.76;70.08
76940;BME280;65885;55.848;35.916;2023-03-12T07:51:22;96250.31;;;7.68;70.38
76940;BME280;65885;55.848;35.916;2023-03-12T07:53:50;96241.59;;;7.58;69.65
76940;BME280;65885;55.848;35.916;2023-03-12T07:56:17;96240.56;;;7.49;69.26
76940;BME280;65885;55.848;35.916;2023-03-12T07:58:45;96245.66;;;7.39;68.89
76940;BME280;65885;55.848;35.916;2023-03-12T08:01:12;96241.19;;;7.30;67.83
76940;BME280;65885;55.848;35.916;2023-03-12T08:03:40;96248.31;;;7.17;67.20
76940;BME280;65885;55.848;35.916;2023-03-12T08:06:07;96258.19;;;7.02;67.31
76940;BME280;65885;55.848;35.916;2023-03-12T08:08:36;96250.97;;;6.94;67.52
76940;BME280;65885;55.848;35.916;2023-03-12T08:11:06;96260.56;;;6.94;67.46
76940;BME280;65885;55.848;35.916;2023-03-12T08:13:34;96260.06;;;7.00;67.00
76940;BME280;65885;55.848;35.916;2023-03-12T08:16:02;96256.03;;;7.07;67.05
76940;BME280;65885;55.848;35.916;2023-03-12T08:18:29;96251.19;;;7.14;66.32
76940;BME280;65885;55.848;35.916;2023-03-12T08:20:57;96255.09;;;7.19;66.18
76940;BME280;65885;55.848;35.916;2023-03-12T08:23:24;96249.41;;;7.26;65.70
76940;BME280;65885;55.848;35.916;2023-03-12T08:25:54;96252.69;;;7.28;65.24
76940;BME280;65885;55.848;35.916;2023-03-12T08:28:22;96260.88;;;7.23;65.50
76940;BME280;65885;55.848;35.916;2023-03-12T08:30:52;96256.66;;;7.11;65.21
76940;BME280;65885;55.848;35.916;2023-03-12T08:33:20;96267.19;;;6.98;65.96
76940;BME280;65885;55.848;35.916;2023-03-12T08:35:48;96268.38;;;6.83;66.55
76940;BME280;65885;55.848;35.916;2023-03-12T08:38:17;96267.81;;;6.68;66.55
76940;BME280;65885;55.848;35.916;2023-03-12T08:40:44;96272.41;;;6.53;66.70
76940;BME280;65885;55.848;35.916;2023-03-12T08:43:13;96274.28;;;6.40;66.67
76940;BME280;65885;55.848;35.916;2023-03-12T08:45:41;96278.75;;;6.27;66.37
76940;BME280;65885;55.848;35.916;2023-03-12T08:48:08;96276.97;;;6.16;67.03
76940;BME280;65885;55.848;35.916;2023-03-12T08:50:36;96279.31;;;6.08;67.64
76940;BME280;65885;55.848;35.916;2023-03-12T08:53:03;96286.03;;;5.99;66.99
76940;BME280;65885;55.848;35.916;2023-03-12T08:55:30;96274.84;;;5.86;67.49
76940;BME280;65885;55.848;35.916;2023-03-12T08:57:58;96279.06;;;5.76;67.61
76940;BME280;65885;55.848;35.916;2023-03-12T09:00:27;96282.94;;;5.70;68.10
76940;BME280;65885;55.848;35.916;2023-03-12T09:02:54;96292.22;;;5.62;67.52
76940;BME280;65885;55.848;35.916;2023-03-12T09:05:23;96280.00;;;5.51;67.37
76940;BME280;65885;55.848;35.916;2023-03-12T09:07:50;96286.56;;;5.44;67.65
76940;BME280;65885;55.848;35.916;2023-03-12T09:10:20;96288.91;;;5.36;67.90
76940;BME280;65885;55.848;35.916;2023-03-12T09:12:48;96283.34;;;5.29;68.29
76940;BME280;65885;55.848;35.916;2023-03-12T09:15:16;96287.91;;;5.25;68.47
76940;BME280;65885;55.848;35.916;2023-03-12T09:17:45;96288.19;;;5.34;68.26
76940;BME280;65885;55.848;35.916;2023-03-12T09:20:15;96289.28;;;5.42;67.75
76940;BME280;65885;55.848;35.916;2023-03-12T09:22:42;96292.78;;;5.54;66.89
76940;BME280;65885;55.848;35.916;2023-03-12T09:25:11;96298.16;;;5.64;66.20
76940;BME280;65885;55.848;35.916;2023-03-12T09:27:40;96294.78;;;5.74;66.36
76940;BME280;65885;55.848;35.916;2023-03-12T09:30:10;96292.09;;;5.87;67.13
76940;BME280;65885;55.848;35.916;2023-03-12T09:32:38;96295.94;;;5.94;66.84
76940;BME280;65885;55.848;35.916;2023-03-12T09:35:07;96298.31;;;5.97;66.60
76940;BME280;65885;55.848;35.916;2023-03-12T09:37:35;96304.69;;;5.93;66.19
76940;BME280;65885;55.848;35.916;2023-03-12T09:40:04;96301.66;;;5.87;66.29
76940;BME280;65885;55.848;35.916;2023-03-12T09:42:39;96297.25;;;5.76;66.55
76940;BME280;65885;55.848;35.916;2023-03-12T09:45:13;96293.66;;;5.66;66.32
76940;BME280;65885;55.848;35.916;2023-03-12T09:47:45;96297.16;;;5.53;66.77
76940;BME280;65885;55.848;35.916;2023-03-12T09:50:22;96292.72;;;5.43;66.45
76940;BME280;65885;55.848;35.916;2023-03-12T09:52:55;96287.47;;;5.32;66.89
76940;BME280;65885;55.848;35.916;2023-03-12T09:55:24;96290.81;;;5.21;67.08
76940;BME280;65885;55.848;35.916;2023-03-12T09:57:52;96290.63;;;5.11;67.14
76940;BME280;65885;55.848;35.916;2023-03-12T10:00:23;96295.03;;;4.98;67.12
76940;BME280;65885;55.848;35.916;2023-03-12T10:03:21;96286.34;;;4.86;67.26
76940;BME280;65885;55.848;35.916;2023-03-12T10:06:02;96302.75;;;4.74;67.25
76940;BME280;65885;55.848;35.916;2023-03-12T10:08:38;96295.00;;;4.61;67.14
76940;BME280;65885;55.848;35.916;2023-03-12T10:11:18;96300.38;;;4.45;67.04
76940;BME280;65885;55.848;35.916;2023-03-12T10:13:56;96301.22;;;4.33;67.38
76940;BME280;65885;55.848;35.916;2023-03-12T10:16:43;96310.97;;;4.30;67.65
76940;BME280;65885;55.848;35.916;2023-03-12T10:19:20;96312.44;;;4.34;67.33
76940;BME280;65885;55.848;35.916;2023-03-12T10:22:00;96303.72;;;4.48;67.21
76940;BME280;65885;55.848;35.916;2023-03-12T10:24:38;96313.25;;;4.60;66.14
76940;BME280;65885;55.848;35.916;2023-03-12T10:27:13;96324.16;;;4.65;65.68
76940;BME280;65885;55.848;35.916;2023-03-12T10:29:43;96323.94;;;4.68;65.17
76940;BME280;65885;55.848;35.916;2023-03-12T10:32:15;96328.13;;;4.70;65.27
76940;BME280;65885;55.848;35.916;2023-03-12T10:34:45;96336.31;;;4.77;64.44
76940;BME280;65885;55.848;35.916;2023-03-12T10:37:19;96339.31;;;4.71;63.99
76940;BME280;65885;55.848;35.916;2023-03-12T10:39:49;96334.00;;;4.60;64.15
76940;BME280;65885;55.848;35.916;2023-03-12T10:42:18;96349.91;;;4.42;64.29
76940;BME280;65885;55.848;35.916;2023-03-12T10:44:46;96344.25;;;4.23;64.95
76940;BME280;65885;55.848;35.916;2023-03-12T10:47:29;96349.72;;;4.06;65.21
76940;BME280;65885;55.848;35.916;2023-03-12T10:50:14;96352.81;;;3.85;65.61
76940;BME280;65885;55.848;35.916;2023-03-12T10:52:45;96356.06;;;3.75;66.10
76940;BME280;65885;55.848;35.916;2023-03-12T10:55:20;96371.75;;;3.59;66.59
76940;BME280;65885;55.848;35.916;2023-03-12T10:57:48;96361.44;;;3.45;66.19
76940;BME280;65885;55.848;35.916;2023-03-12T11:00:20;96367.41;;;3.32;66.86
76940;BME280;65885;55.848;35.916;2023-03-12T11:02:56;96375.91;;;3.20;66.79
76940;BME280;65885;55.848;35.916;2023-03-12T11:05:27;96380.06;;;3.09;67.10
76940;BME280;65885;55.848;35.916;2023-03-12T11:07:57;96382.41;;;2.99;67.03
76940;BME280;65885;55.848;35.916;2023-03-12T11:10:26;96387.38;;;3.02;67.33
76940;BME280;65885;55.848;35.916;2023-03-12T11:13:04;96385.56;;;3.04;67.42
76940;BME280;65885;55.848;35.916;2023-03-12T11:15:42;96398.31;;;3.07;66.87
76940;BME280;65885;55.848;35.916;2023-03-12T11:18:22;96403.00;;;3.15;66.44
76940;BME280;65885;55.848;35.916;2023-03-12T11:20:52;96418.91;;;3.23;66.84
76940;BME280;65885;55.848;35.916;2023-03-12T11:23:28;96436.47;;;3.32;65.70
76940;BME280;65885;55.848;35.916;2023-03-12T11:25:59;96434.34;;;3.39;64.68
76940;BME280;65885;55.848;35.916;2023-03-12T11:28:35;96436.47;;;3.46;64.05
76940;BME280;65885;55.848;35.916;2023-03-12T11:31:07;96433.25;;;3.43;63.60
76940;BME280;65885;55.848;35.916;2023-03-12T11:33:37;96449.16;;;3.37;63.24
76940;BME280;65885;55.848;35.916;2023-03-12T11:36:21;96454.34;;;3.22;63.23
76940;BME280;65885;55.848;35.916;2023-03-12T11:39:02;96458.19;;;3.01;63.57
76940;BME280;65885;55.848;35.916;2023-03-12T11:41:45;96460.31;;;2.80;64.50
76940;BME280;65885;55.848;35.916;2023-03-12T11:44:23;96470.16;;;2.59;65.26
76940;BME280;65885;55.848;35.916;2023-03-12T11:47:15;96458.09;;;2.44;65.59
76940;BME280;65885;55.848;35.916;2023-03-12T11:49:58;96468.41;;;2.30;66.27
76940;BME280;65885;55.848;35.916;2023-03-12T11:52:35;96462.25;;;2.16;66.42
76940;BME280;65885;55.848;35.916;2023-03-12T11:55:40;96462.78;;;2.07;67.80
76940;BME280;65885;55.848;35.916;2023-03-12T11:58:26;96468.28;;;2.01;68.24
76940;BME280;65885;55.848;35.916;2023-03-12T12:01:00;96476.34;;;1.95;67.90
76940;BME280;65885;55.848;35.916;2023-03-12T12:03:46;96480.78;;;1.93;69.00
76940;BME280;65885;55.848;35.916;2023-03-12T12:06:27;96498.97;;;1.91;68.65
76940;BME280;65885;55.848;35.916;2023-03-12T12:09:07;96500.78;;;2.05;68.59
76940;BME280;65885;55.848;35.916;2023-03-12T12:11:44;96513.63;;;2.22;67.94
76940;BME280;65885;55.848;35.916;2023-03-12T12:18:01;96518.00;;;2.52;66.20
76940;BME280;65885;55.848;35.916;2023-03-12T12:20:38;96523.38;;;2.63;65.72
76940;BME280;65885;55.848;35.916;2023-03-12T12:23:17;96539.97;;;2.75;65.55
76940;BME280;65885;55.848;35.916;2023-03-12T12:25:55;96544.44;;;2.87;65.76
76940;BME280;65885;55.848;35.916;2023-03-12T12:31:31;96554.41;;;2.93;64.27
76940;BME280;65885;55.848;35.916;2023-03-12T12:37:14;96565.94;;;2.73;64.20
76940;BME280;65885;55.848;35.916;2023-03-12T12:39:48;96586.66;;;2.58;63.68
76940;BME280;65885;55.848;35.916;2023-03-12T12:42:22;96600.44;;;2.42;64.43
76940;BME280;65885;55.848;35.916;2023-03-12T12:44:56;96608.34;;;2.23;64.16
76940;BME280;65885;55.848;35.916;2023-03-12T12:47:33;96619.69;;;2.05;64.86
76940;BME280;65885;55.848;35.916;2023-03-12T12:50:03;96619.66;;;1.89;65.21
76940;BME280;65885;55.848;35.916;2023-03-12T12:52:32;96635.19;;;1.72;64.98
76940;BME280;65885;55.848;35.916;2023-03-12T12:55:05;96634.91;;;1.61;65.30
76940;BME280;65885;55.848;35.916;2023-03-12T12:57:41;96651.72;;;1.52;65.82
76940;BME280;65885;55.848;35.916;2023-03-12T13:00:42;96645.31;;;1.42;65.07
76940;BME280;65885;55.848;35.916;2023-03-12T13:03:12;96638.75;;;1.36;65.68
76940;BME280;65885;55.848;35.916;2023-03-12T13:05:52;96643.56;;;1.43;64.55
76940;BME280;65885;55.848;35.916;2023-03-12T13:11:25;96648.81;;;1.58;64.30
76940;BME280;65885;55.848;35.916;2023-03-12T13:14:12;96652.53;;;1.70;64.76
76940;BME280;65885;55.848;35.916;2023-03-12T13:16:42;96666.72;;;1.79;63.93
76940;BME280;65885;55.848;35.916;2023-03-12T13:19:24;96670.66;;;1.86;63.68
76940;BME280;65885;55.848;35.916;2023-03-12T13:22:01;96678.84;;;1.94;63.81
76940;BME280;65885;55.848;35.916;2023-03-12T13:24:31;96671.84;;;1.96;63.12
76940;BME280;65885;55.848;35.916;2023-03-12T13:27:03;96683.41;;;1.89;63.33
76940;BME280;65885;55.848;35.916;2023-03-12T13:29:37;96691.88;;;1.75;62.77